createdAt,value
2018-08-24T00:00:17.460Z,2.10
2018-08-24T00:01:17.436Z,2.10
2018-08-24T00:02:17.470Z,1.90
2018-08-24T00:03:17.446Z,2.00
2018-08-24T00:04:17.441Z,2.00
2018-08-24T00:05:17.442Z,2.10
2018-08-24T00:06:17.435Z,2.00
2018-08-24T00:07:17.482Z,2.00
2018-08-24T00:08:17.423Z,2.00
2018-08-24T00:09:17.416Z,2.00
2018-08-24T00:10:17.431Z,1.90
2018-08-24T00:11:17.415Z,2.10
2018-08-24T00:12:17.419Z,1.90
2018-08-24T00:13:17.410Z,2.30
2018-08-24T00:14:17.404Z,1.90
2018-08-24T00:15:17.398Z,2.10
2018-08-24T00:16:17.399Z,2.00
2018-08-24T00:17:17.402Z,2.00
2018-08-24T00:18:17.392Z,1.90
2018-08-24T00:19:17.401Z,2.20
2018-08-24T00:20:17.405Z,1.80
2018-08-24T00:21:17.391Z,2.10
2018-08-24T00:22:17.377Z,2.10
2018-08-24T00:23:17.377Z,1.80
2018-08-24T00:24:17.368Z,1.80
2018-08-24T00:25:17.368Z,1.90
2018-08-24T00:26:17.370Z,1.90
2018-08-24T00:27:17.365Z,1.90
2018-08-24T00:28:17.376Z,1.90
2018-08-24T00:29:17.355Z,1.90
2018-08-24T00:30:17.390Z,1.80
2018-08-24T00:31:17.350Z,1.80
2018-08-24T00:32:17.353Z,2.10
2018-08-24T00:33:17.356Z,1.80
2018-08-24T00:34:17.342Z,1.80
2018-08-24T00:35:17.332Z,1.90
2018-08-24T00:36:17.338Z,1.90
2018-08-24T00:37:17.339Z,1.90
2018-08-24T00:38:17.338Z,1.90
2018-08-24T00:39:17.340Z,1.80
2018-08-24T00:40:17.326Z,2.00
2018-08-24T00:41:17.318Z,1.80
2018-08-24T00:42:17.327Z,1.70
2018-08-24T00:43:17.328Z,1.80
2018-08-24T00:44:17.317Z,2.10
2018-08-24T00:45:17.322Z,1.70
2018-08-24T00:46:17.307Z,1.90
2018-08-24T00:47:17.297Z,1.70
2018-08-24T00:48:17.303Z,1.90
2018-08-24T00:49:17.289Z,1.80
2018-08-24T00:50:17.288Z,2.10
2018-08-24T00:51:17.290Z,2.00
2018-08-24T00:52:17.286Z,1.80
2018-08-24T00:53:17.277Z,1.80
2018-08-24T00:54:17.289Z,1.70
2018-08-24T00:55:17.281Z,1.80
2018-08-24T00:56:17.286Z,1.60
2018-08-24T00:57:17.268Z,2.00
2018-08-24T00:58:17.265Z,1.90
2018-08-24T00:59:17.264Z,1.90
2018-08-24T01:00:17.254Z,1.80
2018-08-24T01:01:17.256Z,1.80
2018-08-24T01:02:17.265Z,1.80
2018-08-24T01:03:17.264Z,1.80
2018-08-24T01:04:17.245Z,1.70
2018-08-24T01:05:17.254Z,1.80
2018-08-24T01:06:17.237Z,1.60
2018-08-24T01:07:17.241Z,1.70
2018-08-24T01:08:17.231Z,1.80
2018-08-24T01:09:17.256Z,1.80
2018-08-24T01:10:17.230Z,1.80
2018-08-24T01:11:17.227Z,1.70
2018-08-24T01:12:17.218Z,1.70
2018-08-24T01:13:17.232Z,2.20
2018-08-24T01:14:17.222Z,1.70
2018-08-24T01:15:17.211Z,1.80
2018-08-24T01:16:17.215Z,1.70
2018-08-24T01:17:17.201Z,1.60
2018-08-24T01:18:17.208Z,1.70
2018-08-24T01:19:17.199Z,1.90
2018-08-24T01:20:17.188Z,1.70
2018-08-24T01:21:17.198Z,1.80
2018-08-24T01:22:17.194Z,1.80
2018-08-24T01:23:17.199Z,1.80
2018-08-24T01:24:17.184Z,1.70
2018-08-24T01:25:17.182Z,1.70
2018-08-24T01:26:17.189Z,1.70
2018-08-24T01:27:17.176Z,1.90
2018-08-24T01:28:17.172Z,1.90
2018-08-24T01:29:17.182Z,1.90
2018-08-24T01:30:17.159Z,1.50
2018-08-24T01:31:17.162Z,1.70
2018-08-24T01:32:17.180Z,1.40
2018-08-24T01:33:17.167Z,1.90
2018-08-24T01:34:17.157Z,1.80
2018-08-24T01:35:17.157Z,1.50
2018-08-24T01:36:17.175Z,1.80
2018-08-24T01:37:17.143Z,1.70
2018-08-24T01:38:17.150Z,1.70
2018-08-24T01:39:17.132Z,1.90
2018-08-24T01:40:17.134Z,1.70
2018-08-24T01:41:17.129Z,1.80
2018-08-24T01:42:17.129Z,1.60
2018-08-24T01:43:17.135Z,1.70
2018-08-24T01:44:17.117Z,1.60
2018-08-24T01:45:17.123Z,1.80
2018-08-24T01:46:17.114Z,1.60
2018-08-24T01:47:17.104Z,1.70
2018-08-24T01:48:17.108Z,1.80
2018-08-24T01:49:17.109Z,1.50
2018-08-24T01:50:17.103Z,1.70
2018-08-24T01:51:17.100Z,1.70
2018-08-24T01:52:17.092Z,1.60
2018-08-24T01:53:17.089Z,1.70
2018-08-24T01:54:17.093Z,1.70
2018-08-24T01:55:17.084Z,1.70
2018-08-24T01:56:17.082Z,1.80
2018-08-24T01:57:17.084Z,1.70
2018-08-24T01:58:17.087Z,1.60
2018-08-24T01:59:17.067Z,1.70
2018-08-24T02:00:17.078Z,1.40
2018-08-24T02:01:17.063Z,1.70
2018-08-24T02:02:17.064Z,1.60
2018-08-24T02:03:17.059Z,1.50
2018-08-24T02:04:17.058Z,1.70
2018-08-24T02:05:17.062Z,1.70
2018-08-24T02:06:17.052Z,1.70
2018-08-24T02:07:17.056Z,1.50
2018-08-24T02:08:17.046Z,1.60
2018-08-24T02:09:17.043Z,1.40
2018-08-24T02:10:17.042Z,1.60
2018-08-24T02:11:17.033Z,1.60
2018-08-24T02:12:17.038Z,1.70
2018-08-24T02:13:17.039Z,1.70
2018-08-24T02:14:17.072Z,1.80
2018-08-24T02:15:17.013Z,1.50
2018-08-24T02:16:17.026Z,1.70
2018-08-24T02:17:17.017Z,1.70
2018-08-24T02:18:17.012Z,1.70
2018-08-24T02:19:17.015Z,1.60
2018-08-24T02:20:17.028Z,1.40
2018-08-24T02:21:16.998Z,1.60
2018-08-24T02:22:17.002Z,1.40
2018-08-24T02:23:16.992Z,1.50
2018-08-24T02:24:17.002Z,1.80
2018-08-24T02:25:17.029Z,1.60
2018-08-24T02:26:16.993Z,1.70
2018-08-24T02:27:16.981Z,1.40
2018-08-24T02:28:16.993Z,1.60
2018-08-24T02:29:16.977Z,1.60
2018-08-24T02:30:16.977Z,1.30
2018-08-24T02:31:17.059Z,1.20
2018-08-24T02:32:16.978Z,1.50
2018-08-24T02:33:16.961Z,1.40
2018-08-24T02:34:16.960Z,1.30
2018-08-24T02:35:16.949Z,1.60
2018-08-24T02:36:16.957Z,1.50
2018-08-24T02:37:16.951Z,1.50
2018-08-24T02:38:16.940Z,1.60
2018-08-24T02:39:16.953Z,1.30
2018-08-24T02:40:16.938Z,1.40
2018-08-24T02:41:16.939Z,1.50
2018-08-24T02:42:16.929Z,1.60
2018-08-24T02:43:16.933Z,1.50
2018-08-24T02:44:16.929Z,1.50
2018-08-24T02:45:16.918Z,1.60
2018-08-24T02:46:16.923Z,1.40
2018-08-24T02:47:16.924Z,1.60
2018-08-24T02:48:16.914Z,1.60
2018-08-24T02:49:16.904Z,1.50
2018-08-24T02:50:16.914Z,1.60
2018-08-24T02:51:16.910Z,1.50
2018-08-24T02:52:16.898Z,1.30
2018-08-24T02:53:16.900Z,1.40
2018-08-24T02:54:16.903Z,1.40
2018-08-24T02:55:16.890Z,1.40
2018-08-24T02:56:16.892Z,1.80
2018-08-24T02:57:16.889Z,1.80
2018-08-24T02:58:16.873Z,1.70
2018-08-24T02:59:16.874Z,1.60
2018-08-24T03:00:16.872Z,1.50
2018-08-24T03:01:16.865Z,1.60
2018-08-24T03:02:16.870Z,1.50
2018-08-24T03:03:16.869Z,1.60
2018-08-24T03:04:16.863Z,1.50
2018-08-24T03:05:16.900Z,1.50
2018-08-24T03:06:16.850Z,1.90
2018-08-24T03:07:16.865Z,1.40
2018-08-24T03:08:16.892Z,1.40
2018-08-24T03:09:16.851Z,1.60
2018-08-24T03:10:16.840Z,1.30
2018-08-24T03:11:16.845Z,1.50
2018-08-24T03:12:16.841Z,1.40
2018-08-24T03:13:16.833Z,1.50
2018-08-24T03:14:16.829Z,1.40
2018-08-24T03:15:16.824Z,1.40
2018-08-24T03:16:16.862Z,1.50
2018-08-24T03:17:16.810Z,1.60
2018-08-24T03:18:16.819Z,1.40
2018-08-24T03:19:16.821Z,1.50
2018-08-24T03:20:16.823Z,1.40
2018-08-24T03:21:16.808Z,1.30
2018-08-24T03:22:16.804Z,1.50
2018-08-24T03:23:16.796Z,1.20
2018-08-24T03:24:16.799Z,1.20
2018-08-24T03:25:16.795Z,1.50
2018-08-24T03:26:16.785Z,1.40
2018-08-24T03:27:16.785Z,1.40
2018-08-24T03:28:16.784Z,1.30
2018-08-24T03:29:16.790Z,1.50
2018-08-24T03:30:16.783Z,1.40
2018-08-24T03:31:16.816Z,1.50
2018-08-24T03:32:16.769Z,1.10
2018-08-24T03:33:16.766Z,1.50
2018-08-24T03:34:16.769Z,1.60
2018-08-24T03:35:16.759Z,1.60
2018-08-24T03:36:16.760Z,1.50
2018-08-24T03:37:16.760Z,1.40
2018-08-24T03:38:16.753Z,1.20
2018-08-24T03:39:16.754Z,1.20
2018-08-24T03:40:16.746Z,1.30
2018-08-24T03:41:16.740Z,1.30
2018-08-24T03:42:16.740Z,1.50
2018-08-24T03:43:16.734Z,1.20
2018-08-24T03:44:16.734Z,1.20
2018-08-24T03:45:16.729Z,1.20
2018-08-24T03:46:16.721Z,1.20
2018-08-24T03:47:16.729Z,1.20
2018-08-24T03:48:16.719Z,1.50
2018-08-24T03:49:16.710Z,1.40
2018-08-24T03:50:16.718Z,1.50
2018-08-24T03:51:16.706Z,1.20
2018-08-24T03:52:16.712Z,1.40
2018-08-24T03:53:16.750Z,1.40
2018-08-24T03:54:16.704Z,1.50
2018-08-24T03:55:16.695Z,1.30
2018-08-24T03:56:16.704Z,1.10
2018-08-24T03:57:16.693Z,1.30
2018-08-24T03:58:16.689Z,1.30
2018-08-24T03:59:16.685Z,1.20
2018-08-24T04:00:16.674Z,1.30
2018-08-24T04:01:16.684Z,1.30
2018-08-24T04:02:16.673Z,1.40
2018-08-24T04:03:16.691Z,1.20
2018-08-24T04:04:16.691Z,1.30
2018-08-24T04:05:16.671Z,1.60
2018-08-24T04:06:16.656Z,1.50
2018-08-24T04:07:16.662Z,1.40
2018-08-24T04:08:16.651Z,1.30
2018-08-24T04:09:16.666Z,1.50
2018-08-24T04:10:16.646Z,1.60
2018-08-24T04:11:16.645Z,1.40
2018-08-24T04:12:16.646Z,1.20
2018-08-24T04:13:16.634Z,1.60
2018-08-24T04:14:16.639Z,1.40
2018-08-24T04:15:16.628Z,1.40
2018-08-24T04:16:16.634Z,1.00
2018-08-24T04:17:16.633Z,1.30
2018-08-24T04:18:16.621Z,1.50
2018-08-24T04:19:16.687Z,1.30
2018-08-24T04:20:16.617Z,1.20
2018-08-24T04:21:16.613Z,1.10
2018-08-24T04:22:16.615Z,1.10
2018-08-24T04:23:16.606Z,1.00
2018-08-24T04:24:16.612Z,1.10
2018-08-24T04:25:16.610Z,1.70
2018-08-24T04:26:16.596Z,1.30
2018-08-24T04:27:16.590Z,1.40
2018-08-24T04:28:16.583Z,1.00
2018-08-24T04:29:16.586Z,1.50
2018-08-24T04:30:16.584Z,1.40
2018-08-24T04:31:16.584Z,1.50
2018-08-24T04:32:16.581Z,1.40
2018-08-24T04:33:16.576Z,1.20
2018-08-24T04:34:16.573Z,1.20
2018-08-24T04:35:16.565Z,1.40
2018-08-24T04:36:16.552Z,1.30
2018-08-24T04:37:16.564Z,1.50
2018-08-24T04:38:16.555Z,1.30
2018-08-24T04:39:16.560Z,1.20
2018-08-24T04:40:16.625Z,1.30
2018-08-24T04:41:16.542Z,1.50
2018-08-24T04:42:16.547Z,1.20
2018-08-24T04:43:16.540Z,1.10
2018-08-24T04:44:16.536Z,1.20
2018-08-24T04:45:16.531Z,1.40
2018-08-24T04:46:16.540Z,1.30
2018-08-24T04:47:16.531Z,1.20
2018-08-24T04:48:16.525Z,1.40
2018-08-24T04:49:16.514Z,1.10
2018-08-24T04:50:16.517Z,1.10
2018-08-24T04:51:16.529Z,1.40
2018-08-24T04:52:16.505Z,1.50
2018-08-24T04:53:16.506Z,1.30
2018-08-24T04:54:16.519Z,1.60
2018-08-24T04:55:16.502Z,1.10
2018-08-24T04:56:16.492Z,1.30
2018-08-24T04:57:16.486Z,1.00
2018-08-24T04:58:16.540Z,1.40
2018-08-24T04:59:16.496Z,1.20
2018-08-24T05:00:16.492Z,1.30
2018-08-24T05:01:16.477Z,1.10
2018-08-24T05:02:16.471Z,1.30
2018-08-24T05:03:16.465Z,1.30
2018-08-24T05:04:16.474Z,1.40
2018-08-24T05:05:16.461Z,1.30
2018-08-24T05:06:16.456Z,1.40
2018-08-24T05:07:16.459Z,1.10
2018-08-24T05:08:16.455Z,1.10
2018-08-24T05:09:16.454Z,1.40
2018-08-24T05:10:16.454Z,1.40
2018-08-24T05:11:16.456Z,1.20
2018-08-24T05:12:16.450Z,1.20
2018-08-24T05:13:16.440Z,1.30
2018-08-24T05:14:16.440Z,1.20
2018-08-24T05:15:16.432Z,1.20
2018-08-24T05:16:16.425Z,1.40
2018-08-24T05:17:16.435Z,1.50
2018-08-24T05:18:16.420Z,1.20
2018-08-24T05:19:16.426Z,1.30
2018-08-24T05:20:16.422Z,1.10
2018-08-24T05:21:16.475Z,1.30
2018-08-24T05:22:16.404Z,1.30
2018-08-24T05:23:16.405Z,1.10
2018-08-24T05:24:16.402Z,1.40
2018-08-24T05:25:16.403Z,1.20
2018-08-24T05:26:16.402Z,1.40
2018-08-24T05:27:16.390Z,1.30
2018-08-24T05:28:16.417Z,1.40
2018-08-24T05:29:16.397Z,1.20
2018-08-24T05:30:16.392Z,1.00
2018-08-24T05:31:16.385Z,1.30
2018-08-24T05:32:16.377Z,1.40
2018-08-24T05:33:16.381Z,1.20
2018-08-24T05:34:16.370Z,1.30
2018-08-24T05:35:16.384Z,1.40
2018-08-24T05:36:16.371Z,1.30
2018-08-24T05:37:16.367Z,1.30
2018-08-24T05:38:16.366Z,1.40
2018-08-24T05:39:16.350Z,1.30
2018-08-24T05:40:16.356Z,1.40
2018-08-24T05:41:16.356Z,1.30
2018-08-24T05:42:16.343Z,1.30
2018-08-24T05:43:16.345Z,1.20
2018-08-24T05:44:16.345Z,1.20
2018-08-24T05:45:16.335Z,1.10
2018-08-24T05:46:16.339Z,1.30
2018-08-24T05:47:16.328Z,1.40
2018-08-24T05:48:16.321Z,1.40
2018-08-24T05:49:16.324Z,1.20
2018-08-24T05:50:16.319Z,1.50
2018-08-24T05:51:16.326Z,1.50
2018-08-24T05:52:16.299Z,1.40
2018-08-24T05:53:16.305Z,1.30
2018-08-24T05:54:16.312Z,1.20
2018-08-24T05:55:16.301Z,1.30
2018-08-24T05:56:16.297Z,1.10
2018-08-24T05:57:16.291Z,1.30
2018-08-24T05:58:16.287Z,1.30
2018-08-24T05:59:16.293Z,1.20
2018-08-24T06:00:16.286Z,1.20
2018-08-24T06:01:16.283Z,1.40
2018-08-24T06:02:16.272Z,1.20
2018-08-24T06:03:16.272Z,1.10
2018-08-24T06:04:16.273Z,1.40
2018-08-24T06:05:16.281Z,1.40
2018-08-24T06:06:16.262Z,1.50
2018-08-24T06:07:16.267Z,1.40
2018-08-24T06:08:16.263Z,1.70
2018-08-24T06:09:16.254Z,1.40
2018-08-24T06:10:16.248Z,1.40
2018-08-24T06:11:16.251Z,1.30
2018-08-24T06:12:16.243Z,1.50
2018-08-24T06:13:16.241Z,1.30
2018-08-24T06:14:16.244Z,1.40
2018-08-24T06:15:16.226Z,1.40
2018-08-24T06:16:16.238Z,1.30
2018-08-24T06:17:16.232Z,1.30
2018-08-24T06:18:16.222Z,1.20
2018-08-24T06:19:16.234Z,1.40
2018-08-24T06:20:16.224Z,1.10
2018-08-24T06:21:16.223Z,1.30
2018-08-24T06:22:16.213Z,1.20
2018-08-24T06:23:16.212Z,1.20
2018-08-24T06:24:16.244Z,1.40
2018-08-24T06:25:16.202Z,1.10
2018-08-24T06:26:16.197Z,1.30
2018-08-24T06:27:16.200Z,1.50
2018-08-24T06:28:16.196Z,1.30
2018-08-24T06:29:16.192Z,1.30
2018-08-24T06:30:16.198Z,1.60
2018-08-24T06:31:16.172Z,1.40
2018-08-24T06:32:16.179Z,1.20
2018-08-24T06:33:16.177Z,1.10
2018-08-24T06:34:16.172Z,1.40
2018-08-24T06:35:16.167Z,1.30
2018-08-24T06:36:16.162Z,1.20
2018-08-24T06:37:16.159Z,1.90
2018-08-24T06:38:16.160Z,1.30
2018-08-24T06:39:16.148Z,1.40
2018-08-24T06:40:16.153Z,1.20
2018-08-24T06:41:16.154Z,1.40
2018-08-24T06:42:16.144Z,1.40
2018-08-24T06:43:16.141Z,1.30
2018-08-24T06:44:16.147Z,1.50
2018-08-24T06:45:16.139Z,1.30
2018-08-24T06:46:16.129Z,1.30
2018-08-24T06:47:16.136Z,1.20
2018-08-24T06:48:16.124Z,1.40
2018-08-24T06:49:16.124Z,1.40
2018-08-24T06:50:16.117Z,1.50
2018-08-24T06:51:16.138Z,1.10
2018-08-24T06:52:16.118Z,1.50
2018-08-24T06:53:16.255Z,1.20
2018-08-24T06:54:16.100Z,1.10
2018-08-24T06:55:16.102Z,1.50
2018-08-24T06:56:16.100Z,1.40
2018-08-24T06:57:16.107Z,1.50
2018-08-24T06:58:16.090Z,1.40
2018-08-24T06:59:16.088Z,1.40
2018-08-24T07:00:16.099Z,1.50
2018-08-24T07:01:16.092Z,1.50
2018-08-24T07:02:16.069Z,1.60
2018-08-24T07:03:16.090Z,1.70
2018-08-24T07:04:16.069Z,1.60
2018-08-24T07:05:16.069Z,1.40
2018-08-24T07:06:16.069Z,1.30
2018-08-24T07:07:16.065Z,1.50
2018-08-24T07:08:16.060Z,1.60
2018-08-24T07:09:16.057Z,1.50
2018-08-24T07:10:16.048Z,1.40
2018-08-24T07:11:16.045Z,1.50
2018-08-24T07:12:16.054Z,1.70
2018-08-24T07:13:16.046Z,1.50
2018-08-24T07:14:16.046Z,1.30
2018-08-24T07:15:16.034Z,1.40
2018-08-24T07:16:16.032Z,1.10
2018-08-24T07:17:16.038Z,1.60
2018-08-24T07:18:16.040Z,1.40
2018-08-24T07:19:16.013Z,1.50
2018-08-24T07:20:16.019Z,1.40
2018-08-24T07:21:16.035Z,1.60
2018-08-24T07:22:16.024Z,1.60
2018-08-24T07:23:16.014Z,1.60
2018-08-24T07:24:16.015Z,1.40
2018-08-24T07:25:16.076Z,1.40
2018-08-24T07:26:16.004Z,1.40
2018-08-24T07:27:16.001Z,1.70
2018-08-24T07:28:15.999Z,1.50
2018-08-24T07:29:15.995Z,1.50
2018-08-24T07:30:15.981Z,1.60
2018-08-24T07:31:15.986Z,1.30
2018-08-24T07:32:15.984Z,1.70
2018-08-24T07:33:15.977Z,1.50
2018-08-24T07:34:15.969Z,1.50
2018-08-24T07:35:15.964Z,1.60
2018-08-24T07:36:15.976Z,1.60
2018-08-24T07:37:15.974Z,1.50
2018-08-24T07:38:15.971Z,1.40
2018-08-24T07:39:15.975Z,1.60
2018-08-24T07:40:15.961Z,1.20
2018-08-24T07:41:15.954Z,1.50
2018-08-24T07:42:15.963Z,1.60
2018-08-24T07:43:15.949Z,1.60
2018-08-24T07:44:15.947Z,1.70
2018-08-24T07:45:15.935Z,1.60
2018-08-24T07:46:15.961Z,1.50
2018-08-24T07:47:15.931Z,1.80
2018-08-24T07:48:15.927Z,1.60
2018-08-24T07:49:15.924Z,1.70
2018-08-24T07:50:15.920Z,1.60
2018-08-24T07:51:15.918Z,1.50
2018-08-24T07:52:15.915Z,1.60
2018-08-24T07:53:15.940Z,1.80
2018-08-24T07:54:15.914Z,1.60
2018-08-24T07:55:15.907Z,1.70
2018-08-24T07:56:15.895Z,1.70
2018-08-24T07:57:15.902Z,1.70
2018-08-24T07:58:15.894Z,1.70
2018-08-24T07:59:15.892Z,1.70
2018-08-24T08:00:15.888Z,1.70
2018-08-24T08:01:15.887Z,1.80
2018-08-24T08:02:15.890Z,1.60
2018-08-24T08:03:15.885Z,1.60
2018-08-24T08:04:15.872Z,1.70
2018-08-24T08:05:15.872Z,1.60
2018-08-24T08:06:15.867Z,2.30
2018-08-24T08:07:15.871Z,2.00
2018-08-24T08:08:15.860Z,1.90
2018-08-24T08:09:15.866Z,3.70
2018-08-24T08:10:15.857Z,3.30
2018-08-24T08:11:15.847Z,2.60
2018-08-24T08:12:15.852Z,2.40
2018-08-24T08:13:15.847Z,2.60
2018-08-24T08:14:15.862Z,2.20
2018-08-24T08:15:15.836Z,2.50
2018-08-24T08:16:15.846Z,1.80
2018-08-24T08:17:15.830Z,1.80
2018-08-24T08:18:15.846Z,1.70
2018-08-24T08:19:15.820Z,1.70
2018-08-24T08:20:15.823Z,1.70
2018-08-24T08:21:15.842Z,1.90
2018-08-24T08:22:15.811Z,1.70
2018-08-24T08:23:15.809Z,1.80
2018-08-24T08:24:15.809Z,1.70
2018-08-24T08:25:15.806Z,1.80
2018-08-24T08:26:15.790Z,2.00
2018-08-24T08:27:15.815Z,1.80
2018-08-24T08:28:15.798Z,1.80
2018-08-24T08:29:15.801Z,2.90
2018-08-24T08:30:15.791Z,2.20
2018-08-24T08:31:15.786Z,1.70
2018-08-24T08:32:15.790Z,2.30
2018-08-24T08:33:15.786Z,1.60
2018-08-24T08:34:15.790Z,1.80
2018-08-24T08:35:15.769Z,2.50
2018-08-24T08:36:15.766Z,1.90
2018-08-24T08:37:15.754Z,1.80
2018-08-24T08:38:15.770Z,2.60
2018-08-24T08:39:15.751Z,2.00
2018-08-24T08:40:15.755Z,1.80
2018-08-24T08:41:15.742Z,1.80
2018-08-24T08:42:15.737Z,1.80
2018-08-24T08:43:15.741Z,2.20
2018-08-24T08:44:15.741Z,2.00
2018-08-24T08:45:15.745Z,2.10
2018-08-24T08:46:15.740Z,1.90
2018-08-24T08:47:15.726Z,1.80
2018-08-24T08:48:15.726Z,1.70
2018-08-24T08:49:15.726Z,2.00
2018-08-24T08:50:15.734Z,2.10
2018-08-24T08:51:15.717Z,1.80
2018-08-24T08:52:15.724Z,1.60
2018-08-24T08:53:15.715Z,1.70
2018-08-24T08:54:15.709Z,1.90
2018-08-24T08:55:15.704Z,1.70
2018-08-24T08:56:15.698Z,1.90
2018-08-24T08:57:15.701Z,2.00
2018-08-24T08:58:15.697Z,1.80
2018-08-24T08:59:15.687Z,2.60
2018-08-24T09:00:15.688Z,1.80
2018-08-24T09:01:15.681Z,1.80
2018-08-24T09:02:15.685Z,1.70
2018-08-24T09:03:15.665Z,1.80
2018-08-24T09:04:15.675Z,2.00
2018-08-24T09:05:15.683Z,1.80
2018-08-24T09:06:15.690Z,1.90
2018-08-24T09:07:15.666Z,2.00
2018-08-24T09:08:15.658Z,2.20
2018-08-24T09:09:15.655Z,1.80
2018-08-24T09:10:15.656Z,2.20
2018-08-24T09:11:15.646Z,2.00
2018-08-24T09:12:15.646Z,1.90
2018-08-24T09:13:15.646Z,2.20
2018-08-24T09:14:15.655Z,1.80
2018-08-24T09:15:15.632Z,2.30
2018-08-24T09:16:15.631Z,2.40
2018-08-24T09:17:15.623Z,1.90
2018-08-24T09:18:15.630Z,1.90
2018-08-24T09:19:15.626Z,2.00
2018-08-24T09:20:15.625Z,1.80
2018-08-24T09:21:15.615Z,1.80
2018-08-24T09:22:15.613Z,1.80
2018-08-24T09:23:15.628Z,3.80
2018-08-24T09:24:15.610Z,1.70
2018-08-24T09:25:15.631Z,1.90
2018-08-24T09:26:15.602Z,1.90
2018-08-24T09:27:15.602Z,2.20
2018-08-24T09:28:15.583Z,1.80
2018-08-24T09:29:15.593Z,2.30
2018-08-24T09:30:15.587Z,1.80
2018-08-24T09:31:15.581Z,2.00
2018-08-24T09:32:15.581Z,1.70
2018-08-24T09:33:15.576Z,1.80
2018-08-24T09:34:15.596Z,2.00
2018-08-24T09:35:15.559Z,2.00
2018-08-24T09:36:15.583Z,1.80
2018-08-24T09:37:15.567Z,1.70
2018-08-24T09:38:15.563Z,1.90
2018-08-24T09:39:15.603Z,1.70
2018-08-24T09:40:15.563Z,1.90
2018-08-24T09:41:15.552Z,1.90
2018-08-24T09:42:15.580Z,1.80
2018-08-24T09:43:15.553Z,2.10
2018-08-24T09:44:15.541Z,2.00
2018-08-24T09:45:15.551Z,1.90
2018-08-24T09:46:15.539Z,1.80
2018-08-24T09:47:15.536Z,2.10
2018-08-24T09:48:15.531Z,1.80
2018-08-24T09:49:15.557Z,1.80
2018-08-24T09:50:15.512Z,1.90
2018-08-24T09:51:15.523Z,1.90
2018-08-24T09:52:15.518Z,2.20
2018-08-24T09:53:15.511Z,1.90
2018-08-24T09:54:15.508Z,2.00
2018-08-24T09:55:15.518Z,1.80
2018-08-24T09:56:15.506Z,2.00
2018-08-24T09:57:15.500Z,1.90
2018-08-24T09:58:15.501Z,2.10
2018-08-24T09:59:15.511Z,1.80
2018-08-24T10:00:15.491Z,1.80
2018-08-24T10:01:15.487Z,2.00
2018-08-24T10:02:15.482Z,1.90
2018-08-24T10:03:15.481Z,2.10
2018-08-24T10:04:15.474Z,2.20
2018-08-24T10:05:15.524Z,1.90
2018-08-24T10:06:15.480Z,1.80
2018-08-24T10:07:15.476Z,2.50
2018-08-24T10:08:15.462Z,2.10
2018-08-24T10:09:15.459Z,2.10
2018-08-24T10:10:15.463Z,2.00
2018-08-24T10:11:15.452Z,2.00
2018-08-24T10:12:15.456Z,1.90
2018-08-24T10:13:15.445Z,1.80
2018-08-24T10:14:15.444Z,1.90
2018-08-24T10:15:15.431Z,1.90
2018-08-24T10:16:15.437Z,2.30
2018-08-24T10:17:15.443Z,1.90
2018-08-24T10:18:15.427Z,1.90
2018-08-24T10:19:15.428Z,2.10
2018-08-24T10:20:15.426Z,2.10
2018-08-24T10:21:15.421Z,2.20
2018-08-24T10:22:15.435Z,2.20
2018-08-24T10:23:15.427Z,1.90
2018-08-24T10:24:15.413Z,1.90
2018-08-24T10:25:15.430Z,2.20
2018-08-24T10:26:15.413Z,2.00
2018-08-24T10:27:15.404Z,2.10
2018-08-24T10:28:15.397Z,2.30
2018-08-24T10:29:15.443Z,2.30
2018-08-24T10:30:15.395Z,1.90
2018-08-24T10:31:15.381Z,2.10
2018-08-24T10:32:15.393Z,2.30
2018-08-24T10:33:15.383Z,2.30
2018-08-24T10:34:15.373Z,2.30
2018-08-24T10:35:15.385Z,2.20
2018-08-24T10:36:15.401Z,1.90
2018-08-24T10:37:15.363Z,2.10
2018-08-24T10:38:15.362Z,2.10
2018-08-24T10:39:15.363Z,2.40
2018-08-24T10:40:15.364Z,2.20
2018-08-24T10:41:15.419Z,2.30
2018-08-24T10:42:15.358Z,2.30
2018-08-24T10:43:15.352Z,2.10
2018-08-24T10:44:15.347Z,2.40
2018-08-24T10:45:15.344Z,2.10
2018-08-24T10:46:15.363Z,1.90
2018-08-24T10:47:15.422Z,2.10
2018-08-24T10:48:15.334Z,2.20
2018-08-24T10:49:15.359Z,2.30
2018-08-24T10:50:15.323Z,2.50
2018-08-24T10:51:15.324Z,2.20
2018-08-24T10:52:15.337Z,2.30
2018-08-24T10:53:15.326Z,2.20
2018-08-24T10:54:15.309Z,2.10
2018-08-24T10:55:15.321Z,2.20
2018-08-24T10:56:15.347Z,2.30
2018-08-24T10:57:15.303Z,2.40
2018-08-24T10:58:15.300Z,2.00
2018-08-24T10:59:15.302Z,2.30
2018-08-24T11:00:15.292Z,2.40
2018-08-24T11:01:15.294Z,2.30
2018-08-24T11:02:15.291Z,2.50
2018-08-24T11:03:15.313Z,2.30
2018-08-24T11:04:15.285Z,2.30
2018-08-24T11:05:15.372Z,2.60
2018-08-24T11:06:15.282Z,2.10
2018-08-24T11:07:15.295Z,2.10
2018-08-24T11:08:15.279Z,2.20
2018-08-24T11:09:15.264Z,2.20
2018-08-24T11:10:15.259Z,2.20
2018-08-24T11:11:15.266Z,2.70
2018-08-24T11:12:15.263Z,2.30
2018-08-24T11:13:15.249Z,2.30
2018-08-24T11:14:15.257Z,2.40
2018-08-24T11:15:15.253Z,2.30
2018-08-24T11:16:15.264Z,3.10
2018-08-24T11:17:15.242Z,2.20
2018-08-24T11:18:15.243Z,2.20
2018-08-24T11:19:15.243Z,2.40
2018-08-24T11:20:15.237Z,2.30
2018-08-24T11:21:15.237Z,2.40
2018-08-24T11:22:15.223Z,2.20
2018-08-24T11:23:15.220Z,2.20
2018-08-24T11:24:15.232Z,2.50
2018-08-24T11:25:15.237Z,2.30
2018-08-24T11:26:15.287Z,2.00
2018-08-24T11:27:15.228Z,2.50
2018-08-24T11:28:15.208Z,2.20
2018-08-24T11:29:15.248Z,2.40
2018-08-24T11:30:15.203Z,2.00
2018-08-24T11:31:15.194Z,2.40
2018-08-24T11:32:15.199Z,2.30
2018-08-24T11:33:15.194Z,2.20
2018-08-24T11:34:15.205Z,2.10
2018-08-24T11:35:15.178Z,2.50
2018-08-24T11:36:15.230Z,2.60
2018-08-24T11:37:15.185Z,2.40
2018-08-24T11:38:15.173Z,2.30
2018-08-24T11:39:15.173Z,2.40
2018-08-24T11:40:15.176Z,2.30
2018-08-24T11:41:15.173Z,2.30
2018-08-24T11:42:15.215Z,2.00
2018-08-24T11:43:15.171Z,1.90
2018-08-24T11:44:15.164Z,2.10
2018-08-24T11:45:15.157Z,2.10
2018-08-24T11:46:15.143Z,2.50
2018-08-24T11:47:15.138Z,2.30
2018-08-24T11:48:15.147Z,2.20
2018-08-24T11:49:15.158Z,2.20
2018-08-24T11:50:15.150Z,2.20
2018-08-24T11:51:15.140Z,2.10
2018-08-24T11:52:15.134Z,2.20
2018-08-24T11:53:15.128Z,2.40
2018-08-24T11:54:15.179Z,2.10
2018-08-24T11:55:15.131Z,2.10
2018-08-24T11:56:15.137Z,1.80
2018-08-24T11:57:15.109Z,2.20
2018-08-24T11:58:15.127Z,1.90
2018-08-24T11:59:15.114Z,2.50
2018-08-24T12:00:15.101Z,2.30
2018-08-24T12:01:15.102Z,2.10
2018-08-24T12:02:15.107Z,2.10
2018-08-24T12:03:15.084Z,2.00
2018-08-24T12:04:15.100Z,2.10
2018-08-24T12:05:15.094Z,2.30
2018-08-24T12:06:15.094Z,2.40
2018-08-24T12:07:15.091Z,2.50
2018-08-24T12:08:15.089Z,2.10
2018-08-24T12:09:15.080Z,1.90
2018-08-24T12:10:15.075Z,2.20
2018-08-24T12:11:15.085Z,2.30
2018-08-24T12:12:15.145Z,2.10
2018-08-24T12:13:15.061Z,2.20
2018-08-24T12:14:15.125Z,2.10
2018-08-24T12:15:15.062Z,2.20
2018-08-24T12:16:15.055Z,2.00
2018-08-24T12:17:15.061Z,1.90
2018-08-24T12:18:15.062Z,2.20
2018-08-24T12:19:15.045Z,2.10
2018-08-24T12:20:15.046Z,2.30
2018-08-24T12:21:15.094Z,2.20
2018-08-24T12:22:15.055Z,2.10
2018-08-24T12:23:15.032Z,2.10
2018-08-24T12:24:15.094Z,2.20
2018-08-24T12:25:15.029Z,1.90
2018-08-24T12:26:15.041Z,2.10
2018-08-24T12:27:15.074Z,2.30
2018-08-24T12:28:15.022Z,1.90
2018-08-24T12:29:15.024Z,2.10
2018-08-24T12:30:15.025Z,2.20
2018-08-24T12:31:15.015Z,2.20
2018-08-24T12:32:15.022Z,2.00
2018-08-24T12:33:15.002Z,1.90
2018-08-24T12:34:15.015Z,1.90
2018-08-24T12:35:15.012Z,2.10
2018-08-24T12:36:14.999Z,2.20
2018-08-24T12:37:15.004Z,2.00
2018-08-24T12:38:14.995Z,2.20
2018-08-24T12:39:14.985Z,2.20
2018-08-24T12:40:14.987Z,2.20
2018-08-24T12:41:15.076Z,2.10
2018-08-24T12:42:14.980Z,2.00
2018-08-24T12:43:14.976Z,2.10
2018-08-24T12:44:14.974Z,2.10
2018-08-24T12:45:14.978Z,2.00
2018-08-24T12:46:14.962Z,2.30
2018-08-24T12:47:14.955Z,1.90
2018-08-24T12:48:14.962Z,2.20
2018-08-24T12:49:14.986Z,2.20
2018-08-24T12:50:14.951Z,2.10
2018-08-24T12:51:14.970Z,2.10
2018-08-24T12:52:15.018Z,1.90
2018-08-24T12:53:14.953Z,2.20
2018-08-24T12:54:14.946Z,2.10
2018-08-24T12:55:14.936Z,2.00
2018-08-24T12:56:14.938Z,2.10
2018-08-24T12:57:14.935Z,2.20
2018-08-24T12:58:14.937Z,2.30
2018-08-24T12:59:14.921Z,1.80
2018-08-24T13:00:14.932Z,1.90
2018-08-24T13:01:14.915Z,2.20
2018-08-24T13:02:14.919Z,2.50
2018-08-24T13:03:14.913Z,2.00
2018-08-24T13:04:14.911Z,2.10
2018-08-24T13:05:14.916Z,1.80
2018-08-24T13:06:14.914Z,2.30
2018-08-24T13:07:14.906Z,2.20
2018-08-24T13:08:14.910Z,2.20
2018-08-24T13:09:14.905Z,2.00
2018-08-24T13:10:14.887Z,2.00
2018-08-24T13:11:14.900Z,2.00
2018-08-24T13:12:14.907Z,1.90
2018-08-24T13:13:14.875Z,1.90
2018-08-24T13:14:14.879Z,2.50
2018-08-24T13:15:14.960Z,2.20
2018-08-24T13:16:14.870Z,2.10
2018-08-24T13:17:14.878Z,1.80
2018-08-24T13:18:14.872Z,2.00